Latest Weather Observations for Scherger

IDQ60801

Issued at 11:32 am EST Saturday 28 February 2015 (issued every 30 minutes, with the page automatically refreshed every 10 minutes)

About weather observations | Map of weather stations | Latest weather observations for QLD | Other Formats
Station Details ID: 027075 Name: SCHERGER RAAF Lat: -12.62 Lon: 142.09 Height: 39.34 m
Data from the previous 72 hours. | See also: Recent months at Scherger
Date/Time
EST
Temp
°C
App
Temp
°C
Dew
Point
Rel
Hum
%
Delta-T
°C
Wind Press
QNH
hPa
Press
MSL
hPa
Rain
since 9 am
mm
Dir
 
Spd
km/h
Gust
km/h
Spd
kts
Gust
kts
28/11:00am 30.1 33.4 23.8 69 4.4 N 13 20 7 11 1008.1 1007.8 0.0
28/10:30am 28.5 31.1 23.9 76 3.2 N 17 24 9 13 1008.4 1008.1 0.0
28/10:00am 28.3 33.0 24.9 82 2.4 N 9 13 5 7 1008.5 1008.2 0.0
28/09:30am 27.5 31.3 24.1 82 2.4 N 11 15 6 8 1008.6 1008.3 0.0
28/09:00am 26.7 30.8 24.0 85 1.9 NNE 9 15 5 8 1008.3 1008.0 5.4
28/08:30am 26.4 30.7 24.2 88 1.5 NNE 9 15 5 8 1008.2 1007.9 5.4
28/08:10am 25.7 30.0 23.7 89 1.4 NNE 7 11 4 6 1008.3 1008.0 5.4
28/08:00am 25.2 28.9 23.3 89 1.3 NE 9 17 5 9 1008.2 1007.9 5.4
28/07:39am 25.0 29.4 23.8 93 0.8 NE 7 11 4 6 1007.7 1007.4 5.4
28/07:00am 24.3 29.9 23.6 96 0.5 CALM 0 0 0 0 1007.0 1006.7 5.4
28/06:30am 24.0 29.3 23.1 95 0.6 CALM 0 0 0 0 1006.8 1006.5 5.4
28/06:06am 24.0 28.0 23.1 95 0.6 SSE 7 7 4 4 1006.6 1006.3 5.4
28/06:00am 24.0 28.9 23.1 95 0.6 SSE 2 7 1 4 1006.5 1006.2 5.4
28/05:30am 24.1 28.5 23.4 96 0.5 ENE 6 7 3 4 1006.3 1006.0 5.4
28/05:00am 24.2 28.6 23.5 96 0.5 NE 6 7 3 4 1006.0 1005.7 5.4
28/04:30am 24.3 29.5 23.6 96 0.5 NE 2 7 1 4 1006.1 1005.8 5.4
28/04:00am 24.3 28.8 23.6 96 0.5 NNE 6 9 3 5 1006.0 1005.7 5.4
28/03:30am 24.3 28.6 23.6 96 0.5 NE 7 11 4 6 1006.1 1005.8 5.4
28/03:27am 24.3 28.8 23.6 96 0.5 NE 6 11 3 6 1006.2 1005.9 5.4
28/03:00am 24.3 29.9 23.6 96 0.5 CALM 0 0 0 0 1006.3 1006.0 5.4
28/02:30am 24.3 29.8 23.4 95 0.6 CALM 0 0 0 0 1006.5 1006.2 5.4
28/02:00am 24.3 29.8 23.4 95 0.6 CALM 0 0 0 0 1006.8 1006.5 5.4
28/01:30am 24.2 29.6 23.3 95 0.6 CALM 0 0 0 0 1007.3 1007.0 5.4
28/01:28am 24.3 29.8 23.4 95 0.6 CALM 0 0 0 0 1007.4 1007.1 5.4
28/01:00am 24.3 28.7 23.4 95 0.6 NNE 6 9 3 5 1007.9 1007.6 5.4
28/12:30am 24.4 28.6 23.5 95 0.6 N 7 11 4 6 1008.4 1008.1 5.4
28/12:04am 24.3 28.7 23.4 95 0.6 N 6 9 3 5 1008.5 1008.2 5.4
28/12:00am 24.3 28.7 23.4 95 0.6 N 6 7 3 4 1008.5 1008.2 5.4
 
Date/Time
EST
Temp
°C
App
Temp
°C
Dew
Point
Rel
Hum
%
Delta-T
°C
Wind Press
QNH
hPa
Press
MSL
hPa
Rain
since 9 am
mm
Dir
 
Spd
km/h
Gust
km/h
Spd
kts
Gust
kts
27/11:30pm 24.3 29.8 23.4 95 0.6 CALM 0 0 0 0 1008.4 1008.1 5.4
27/11:00pm 24.3 29.8 23.4 95 0.6 CALM 0 0 0 0 1008.4 1008.1 5.4
27/10:48pm 24.3 29.8 23.4 95 0.6 CALM 0 0 0 0 1008.2 1007.9 5.4
27/10:30pm 24.3 29.8 23.4 95 0.6 CALM 0 0 0 0 1008.1 1007.8 5.4
27/10:05pm 24.3 29.8 23.4 95 0.6 CALM 0 0 0 0 1008.0 1007.7 5.4
27/10:00pm 24.3 29.7 23.3 94 0.7 CALM 0 0 0 0 1007.9 1007.6 5.4
27/09:30pm 24.2 29.6 23.2 94 0.7 CALM 0 0 0 0 1007.8 1007.5 5.4
27/09:00pm 24.2 29.6 23.2 94 0.7 CALM 0 0 0 0 1007.7 1007.4 5.4
27/08:57pm 24.2 29.6 23.2 94 0.7 CALM 0 0 0 0 1007.7 1007.4 5.4
27/08:44pm 24.2 29.6 23.2 94 0.7 CALM 0 0 0 0 1007.7 1007.4 5.4
27/08:30pm 24.1 29.4 23.1 94 0.7 CALM 0 0 0 0 1007.5 1007.2 5.4
27/08:00pm 24.0 29.3 23.0 94 0.7 CALM 0 6 0 3 1007.1 1006.8 5.4
27/07:31pm 24.0 27.9 23.0 94 0.7 N 7 11 4 6 1007.0 1006.7 5.2
27/07:30pm 24.1 28.1 23.1 94 0.7 N 7 11 4 6 1007.0 1006.7 5.2
27/07:00pm 24.4 28.2 23.4 94 0.7 N 9 15 5 8 1006.7 1006.4 5.2
27/06:37pm 24.4 29.9 23.4 94 0.7 CALM 0 0 0 0 1006.3 1006.0 5.2
27/06:30pm 24.3 29.4 23.3 94 0.7 NNE 2 6 1 3 1006.3 1006.0 5.2
27/06:00pm 24.3 28.0 23.3 94 0.7 N 9 13 5 7 1006.3 1006.0 4.8
27/05:37pm 24.6 29.0 23.4 93 0.8 NNW 6 9 3 5 1006.3 1006.0 4.0
27/05:30pm 24.6 29.0 23.4 93 0.8 N 6 7 3 4 1006.2 1005.9 3.4
27/05:02pm 24.8 30.2 23.2 91 1.1 CALM 0 0 0 0 1005.9 1005.6 2.0
27/05:00pm 24.8 30.2 23.2 91 1.1 CALM 0 0 0 0 1005.9 1005.6 2.0
27/04:30pm 25.5 29.4 23.0 86 1.7 NNW 7 11 4 6 1006.2 1005.9 1.0
27/04:00pm 26.6 30.8 23.1 81 2.4 ENE 6 9 3 5 1006.0 1005.7 0.8
27/03:30pm 27.2 31.3 23.9 82 2.3 ESE 9 15 5 8 1005.3 1005.0 0.8
27/03:00pm 27.0 30.4 23.3 80 2.5 SE 11 13 6 7 1005.2 1004.9 0.8
27/02:30pm 26.6 30.2 23.1 81 2.4 SE 9 15 5 8 1005.3 1005.0 0.8
27/02:00pm 26.7 30.0 22.5 78 2.8 ESE 9 13 5 7 1005.8 1005.5 0.8
27/01:30pm 26.7 29.9 23.0 80 2.5 E 11 19 6 10 1006.1 1005.8 0.8
27/01:00pm 28.0 29.9 22.0 70 4.0 NE 15 26 8 14 1006.5 1006.2 0.2
27/12:30pm 30.2 32.9 23.4 67 4.7 N 15 22 8 12 1006.8 1006.5 0.2
27/12:00pm 30.1 33.4 23.8 69 4.4 NNW 13 22 7 12 1007.3 1007.0 0.2
27/11:30am 30.3 33.8 24.2 70 4.3 N 13 20 7 11 1007.9 1007.6 0.2
27/11:00am 29.7 33.6 23.6 69 4.2 NNE 9 15 5 8 1008.4 1008.1 0.2
27/10:30am 28.7 32.6 23.6 74 3.5 NNE 9 17 5 9 1008.6 1008.3 0.0
27/10:00am 27.7 31.3 23.7 79 2.8 N 11 17 6 9 1008.6 1008.3 0.0
27/09:30am 27.0 31.3 24.3 85 1.9 N 9 15 5 8 1008.7 1008.4 0.0
27/09:18am 26.6 30.8 24.1 86 1.7 NNE 9 15 5 8 1008.7 1008.4 0.0
27/09:00am 26.5 30.9 24.5 89 1.4 N 9 13 5 7 1008.6 1008.3 13.4
27/08:58am 26.5 30.9 24.5 89 1.4 N 9 13 5 7 1008.6 1008.3 13.4
27/08:30am 25.8 30.2 24.4 92 1.0 N 9 17 5 9 1008.1 1007.8 13.4
27/08:00am 25.1 30.3 24.2 95 0.6 NE 4 7 2 4 1007.7 1007.4 13.4
27/07:30am 24.6 30.3 23.7 95 0.6 CALM 0 0 0 0 1007.5 1007.2 13.4
27/07:00am 24.4 30.0 23.5 95 0.6 CALM 0 0 0 0 1007.3 1007.0 13.4
27/06:30am 24.2 29.6 23.3 95 0.6 CALM 0 0 0 0 1007.0 1006.7 13.4
27/06:00am 24.1 29.5 23.2 95 0.6 CALM 0 0 0 0 1006.4 1006.1 13.4
27/05:30am 24.1 29.5 23.2 95 0.6 CALM 0 0 0 0 1006.2 1005.9 13.4
27/05:00am 24.2 29.6 23.2 94 0.7 CALM 0 0 0 0 1006.0 1005.7 13.4
27/04:30am 24.2 29.6 23.2 94 0.7 CALM 0 0 0 0 1005.9 1005.6 13.4
27/04:00am 24.3 29.7 23.3 94 0.7 CALM 0 0 0 0 1005.8 1005.5 13.4
27/03:30am 24.2 29.6 23.2 94 0.7 CALM 0 0 0 0 1005.9 1005.6 13.4
27/03:00am 24.2 29.6 23.2 94 0.7 CALM 0 0 0 0 1006.0 1005.7 13.4
27/02:30am 24.3 29.6 23.1 93 0.8 CALM 0 0 0 0 1006.3 1006.0 13.4
27/02:00am 24.4 29.9 23.4 94 0.7 CALM 0 0 0 0 1006.7 1006.4 13.4
27/01:30am 24.5 30.1 23.5 94 0.7 CALM 0 6 0 3 1007.1 1006.8 13.4
27/01:00am 24.5 29.7 23.5 94 0.7 ESE 2 9 1 5 1007.4 1007.1 13.4
27/12:30am 24.5 28.9 23.5 94 0.7 ENE 6 9 3 5 1007.8 1007.5 13.4
27/12:00am 24.5 29.3 23.5 94 0.7 ENE 4 7 2 4 1008.2 1007.9 13.4
 
Date/Time
EST
Temp
°C
App
Temp
°C
Dew
Point
Rel
Hum
%
Delta-T
°C
Wind Press
QNH
hPa
Press
MSL
hPa
Rain
since 9 am
mm
Dir
 
Spd
km/h
Gust
km/h
Spd
kts
Gust
kts
26/11:30pm 24.5 29.9 23.3 93 0.8 CALM 0 0 0 0 1008.4 1008.1 13.4
26/11:00pm 24.5 29.7 22.9 91 1.1 CALM 0 0 0 0 1008.6 1008.3 13.4
26/10:30pm 24.7 28.6 22.9 90 1.2 SSE 7 11 4 6 1008.5 1008.2 13.4
26/10:00pm 25.0 29.2 23.4 91 1.1 E 7 11 4 6 1008.1 1007.8 13.4
26/09:30pm 25.4 30.9 24.0 92 1.0 ESE 2 7 1 4 1008.0 1007.7 13.4
26/09:00pm 25.7 31.8 24.5 93 0.8 CALM 0 7 0 4 1007.6 1007.3 13.4
26/08:30pm 25.7 31.8 24.5 93 0.8 CALM 0 0 0 0 1007.0 1006.7 13.4
26/08:00pm 25.6 31.6 24.2 92 1.0 CALM 0 0 0 0 1006.4 1006.1 13.4
26/07:30pm 25.8 31.9 24.4 92 1.0 CALM 0 0 0 0 1006.0 1005.7 13.4
26/07:00pm 25.8 31.5 23.7 88 1.4 CALM 0 0 0 0 1005.7 1005.4 13.4
26/06:30pm 26.3 32.0 23.8 86 1.7 CALM 0 2 0 1 1005.4 1005.1 13.4
26/06:00pm 26.8 32.1 24.3 86 1.7 NW 4 13 2 7 1005.4 1005.1 11.0
26/05:30pm 28.6 34.0 23.9 75 3.2 NW 2 6 1 3 1004.9 1004.6 7.6
26/05:00pm 29.2 34.5 24.3 75 3.4 WNW 4 9 2 5 1004.7 1004.4 7.6
26/04:30pm 28.8 33.3 23.9 75 3.4 NNW 7 11 4 6 1005.0 1004.7 7.6
26/04:00pm 28.6 32.8 23.5 74 3.5 NNW 7 13 4 7 1004.9 1004.6 7.6
26/03:30pm 28.4 33.6 24.2 78 2.9 NNE 4 9 2 5 1004.8 1004.5 7.6
26/03:00pm 27.7 33.1 23.3 77 3.0 CALM 0 0 0 0 1004.9 1004.6 7.6
26/02:30pm 27.2 32.7 23.4 80 2.6 CALM 0 4 0 2 1005.3 1005.0 7.6
26/02:00pm 26.8 31.9 23.3 81 2.4 NNE 2 7 1 4 1005.8 1005.5 7.4
26/01:36pm 26.2 29.8 23.1 83 2.1 NNE 9 13 5 7 1006.6 1006.3 7.4
26/01:30pm 26.4 30.9 23.9 86 1.7 NNE 7 11 4 6 1006.6 1006.3 7.4
26/01:00pm 25.6 29.9 23.3 87 1.6 NNE 6 9 3 5 1007.2 1006.9 7.4
26/12:30pm 25.1 29.8 23.3 90 1.2 NE 4 9 2 5 1007.7 1007.4 7.4
26/12:19pm 25.0 29.4 23.4 91 1.1 ENE 6 9 3 5 1007.9 1007.6 7.4
26/12:17pm 25.0 29.5 23.6 92 1.0 ENE 6 11 3 6 1007.9 1007.6 7.4
26/12:00pm 25.0 29.6 23.8 93 0.8 ENE 6 9 3 5 1008.3 1008.0 7.4
26/11:47am 24.7 28.7 23.7 94 0.7 NE 9 15 5 8 1008.4 1008.1 7.4
26/11:30am 24.6 29.3 23.4 93 0.8 WNW 4 7 2 4 1009.1 1008.8 7.4
26/11:00am 24.2 28.3 23.2 94 0.7 N 7 11 4 6 1009.0 1008.7 7.2
26/10:37am 24.1 28.2 23.2 95 0.6 NNE 7 13 4 7 1008.5 1008.2 7.0
26/10:30am 24.1 28.2 23.2 95 0.6 NNE 7 13 4 7 1008.6 1008.3 6.8
26/10:00am 24.0 29.3 23.1 95 0.6 CALM 0 0 0 0 1009.3 1009.0 5.6
26/09:30am 23.9 28.0 23.0 95 0.6 S 6 7 3 4 1009.7 1009.4 2.8
26/09:00am 23.8 29.0 22.9 95 0.6 CALM 0 2 0 1 1010.1 1009.8 16.8
26/08:30am 23.8 27.3 22.9 95 0.6 S 9 17 5 9 1009.9 1009.6 13.8
26/08:15am 23.8 27.7 22.9 95 0.6 SSE 7 11 4 6 1010.0 1009.7 12.2
26/08:00am 23.8 27.7 22.9 95 0.6 SE 7 13 4 7 1009.5 1009.2 11.2
26/07:30am 23.6 26.9 22.6 94 0.7 S 9 15 5 8 1008.9 1008.6 8.6
26/07:00am 24.1 26.7 22.7 92 0.9 SE 13 20 7 11 1008.3 1008.0 1.8
26/06:30am 25.1 26.9 23.3 90 1.2 SSE 19 24 10 13 1007.6 1007.3 0.0
26/06:11am 26.0 30.2 24.8 93 0.8 SSE 11 17 6 9 1007.2 1006.9 0.0
26/06:00am 26.2 32.8 25.2 94 0.7 CALM 0 7 0 4 1007.1 1006.8 0.0
26/05:30am 26.3 32.9 25.3 94 0.7 CALM 0 0 0 0 1006.9 1006.6 0.0
26/05:00am 26.3 32.9 25.3 94 0.7 CALM 0 0 0 0 1006.4 1006.1 0.0
26/04:30am 26.3 32.8 25.1 93 0.8 CALM 0 0 0 0 1006.2 1005.9 0.0
26/04:00am 26.3 32.6 25.3 94 0.7 NNE 2 6 1 3 1006.4 1006.1 0.0
26/03:30am 26.4 33.0 25.2 93 0.8 CALM 0 0 0 0 1006.4 1006.1 0.0
26/03:00am 26.5 33.1 25.3 93 0.8 CALM 0 0 0 0 1006.5 1006.2 0.0
26/02:30am 26.6 32.2 25.4 93 0.8 N 6 7 3 4 1006.8 1006.5 0.0
26/02:00am 26.6 33.2 25.2 92 1.0 CALM 0 0 0 0 1007.1 1006.8 0.0
26/01:30am 26.7 33.3 25.3 92 1.0 CALM 0 0 0 0 1007.5 1007.2 0.0
26/01:00am 26.6 33.2 25.2 92 1.0 CALM 0 0 0 0 1007.9 1007.6 0.0
26/12:30am 26.5 32.9 24.9 91 1.1 CALM 0 0 0 0 1007.7 1007.4 0.0
26/12:00am 26.8 33.3 25.0 90 1.3 CALM 0 0 0 0 1007.7 1007.4 0.0
 
Date/Time
EST
Temp
°C
App
Temp
°C
Dew
Point
Rel
Hum
%
Delta-T
°C
Wind Press
QNH
hPa
Press
MSL
hPa
Rain
since 9 am
mm
Dir
 
Spd
km/h
Gust
km/h
Spd
kts
Gust
kts
25/11:30pm 26.9 33.4 25.1 90 1.3 CALM 0 0 0 0 1008.2 1007.9 0.0
25/11:00pm 26.8 33.1 24.8 89 1.4 CALM 0 0 0 0 1008.2 1007.9 0.0
25/10:30pm 27.0 33.3 24.8 88 1.5 CALM 0 0 0 0 1008.2 1007.9 0.0
25/10:00pm 27.3 33.7 24.9 87 1.7 CALM 0 0 0 0 1007.6 1007.3 0.0
25/09:30pm 27.6 33.8 24.6 84 2.1 CALM 0 0 0 0 1007.5 1007.2 0.0
25/09:00pm 28.0 34.0 24.8 83 2.2 W 2 7 1 4 1007.7 1007.4 0.0
25/08:30pm 28.2 33.5 24.4 80 2.6 WNW 4 9 2 5 1007.2 1006.9 0.0
25/08:00pm 28.5 33.6 24.7 80 2.7 WNW 6 11 3 6 1006.6 1006.3 0.0
25/07:30pm 29.0 33.2 24.8 78 2.9 W 11 19 6 10 1006.5 1006.2 0.0
25/07:00pm 29.5 34.5 24.8 76 3.3 W 7 13 4 7 1005.9 1005.6 0.0
25/06:30pm 29.9 33.6 24.5 73 3.8 W 13 19 7 10 1005.5 1005.2 0.0
25/06:00pm 30.4 34.0 24.3 70 4.3 W 13 22 7 12 1005.1 1004.8 0.0
25/05:30pm 30.8 35.2 24.4 68 4.5 WNW 9 17 5 9 1004.7 1004.4 0.0
25/05:00pm 30.9 34.8 24.3 68 4.6 WNW 11 19 6 10 1004.6 1004.3 0.0
25/04:30pm 31.6 35.7 24.5 66 5.0 W 11 19 6 10 1004.8 1004.5 0.0
25/04:00pm 32.2 36.4 24.8 65 5.2 WNW 11 20 6 11 1005.0 1004.7 0.0
25/03:30pm 32.4 36.4 25.0 65 5.2 W 13 20 7 11 1005.0 1004.7 0.0
25/03:00pm 32.8 36.8 25.1 64 5.5 W 13 20 7 11 1005.6 1005.3 0.0
25/02:30pm 32.3 35.9 24.3 62 5.6 W 13 20 7 11 1005.9 1005.6 0.0
25/02:00pm 33.1 37.2 24.6 61 6.0 WNW 11 17 6 9 1006.4 1006.1 0.0
25/01:30pm 33.3 36.3 23.3 55 6.9 WNW 13 20 7 11 1006.9 1006.6 0.0
25/01:00pm 32.7 36.2 23.6 58 6.3 NW 11 20 6 11 1007.4 1007.1 0.0
25/12:30pm 33.0 37.9 24.7 61 5.9 NW 7 17 4 9 1007.8 1007.5 0.0
25/12:00pm 32.0 36.2 24.1 63 5.5 WNW 9 24 5 13 1008.2 1007.9 0.0

Other Formats:

Comma delimited format used in spreadsheet applications
http://www.bom.gov.au/fwo/IDQ60801/IDQ60801.94171.axf

JavaScript Object Notation format (JSON) in row-major order
http://www.bom.gov.au/fwo/IDQ60801/IDQ60801.94171.json